Linndale, Ohio
Current Conditions -  °F | °C
As of 4:51 PM on Thursday 23 Oct 2014 (Local Time) from KCLE Reporting Station
Few Clouds Few Clouds  
Wind Chill: 55°   Ceiling: Unl
Heat Index: 55°   Visibility: 10mi
Dew Point: 42°   Wind: 5mph
Humidity: 62%   Direction: 300°WNW
Pressure: 30.16"   Gusts: NA
Location:  41.4315°N, 81.8114°W
Report Text: KCLE 232051Z 30004KT 10SM FEW025 FEW250 13/06 A3016 RMK AO2 SLP214 T01280056 56013
Loading
Personal Weather Stations






























Interactive Weather Map
Tropical Storm Tracking
New forecast layout! Learn more

10-Day Weather Forecast

Advertisements
Track Severe Weather on mobile